<?xml version="1.0" encoding="utf-8"?>
<gpx xmlns:xsi="http://www.w3.org/2001/XMLSchema-instance" xmlns:xsd="http://www.w3.org/2001/XMLSchema" version="1.1" creator="Shapelink.com" xmlns="http://www.topografix.com/GPX/1/1" xmlns:gpxtpx="http://www.garmin.com/xmlschemas/TrackPointExtension/v1">
  <metadata>
    <name>Övrigt 1.63 km, 2020-08-19</name>
    <desc></desc>
    <author><name>Marian Moron</name></author> 
    <time>2020-08-19T20:50:56Z</time>
  </metadata>
  <trk>
    <name>Övrigt 1.63 km, 2020-08-19</name>
    <trkseg>
      <trkpt lat="51.22988865359" lon="4.4580392435">
        <ele>0</ele>
        <time>2020-08-19T20:50:56Z</time>
      </trkpt>
      <trkpt lat="51.229928802891" lon="4.458467390952">
        <ele>0</ele>
        <time>2020-08-19T20:51:36Z</time>
      </trkpt>
      <trkpt lat="51.230027290216" lon="4.45880534916">
        <ele>0</ele>
        <time>2020-08-19T20:52:09Z</time>
      </trkpt>
      <trkpt lat="51.230099290737" lon="4.458876343853">
        <ele>0</ele>
        <time>2020-08-19T20:52:26Z</time>
      </trkpt>
      <trkpt lat="51.230388969201" lon="4.459004251647">
        <ele>0</ele>
        <time>2020-08-19T20:53:21Z</time>
      </trkpt>
      <trkpt lat="51.230484941956" lon="4.459524683818">
        <ele>0</ele>
        <time>2020-08-19T20:53:54Z</time>
      </trkpt>
      <trkpt lat="51.230536323003" lon="4.459680335701">
        <ele>0</ele>
        <time>2020-08-19T20:54:12Z</time>
      </trkpt>
      <trkpt lat="51.230840334516" lon="4.459640605495">
        <ele>0</ele>
        <time>2020-08-19T20:54:46Z</time>
      </trkpt>
      <trkpt lat="51.231280132809" lon="4.459524180904">
        <ele>0.6</ele>
        <time>2020-08-19T20:55:25Z</time>
      </trkpt>
      <trkpt lat="51.231718506179" lon="4.459504567258">
        <ele>0.8</ele>
        <time>2020-08-19T20:56:09Z</time>
      </trkpt>
      <trkpt lat="51.231746501725" lon="4.459507668561">
        <ele>0.6</ele>
        <time>2020-08-19T20:56:12Z</time>
      </trkpt>
      <trkpt lat="51.231888239654" lon="4.459831126082">
        <ele>1.8</ele>
        <time>2020-08-19T20:57:09Z</time>
      </trkpt>
      <trkpt lat="51.232010447756" lon="4.460246784503">
        <ele>0</ele>
        <time>2020-08-19T20:57:48Z</time>
      </trkpt>
      <trkpt lat="51.232033162705" lon="4.46043311414">
        <ele>0</ele>
        <time>2020-08-19T20:58:05Z</time>
      </trkpt>
      <trkpt lat="51.232038024207" lon="4.460562865952">
        <ele>0</ele>
        <time>2020-08-19T20:58:16Z</time>
      </trkpt>
      <trkpt lat="51.232179510679" lon="4.461231741572">
        <ele>0</ele>
        <time>2020-08-19T20:58:58Z</time>
      </trkpt>
      <trkpt lat="51.232205494569" lon="4.461550505229">
        <ele>0</ele>
        <time>2020-08-19T20:59:17Z</time>
      </trkpt>
      <trkpt lat="51.232177163747" lon="4.46178679099">
        <ele>1.6</ele>
        <time>2020-08-19T20:59:29Z</time>
      </trkpt>
      <trkpt lat="51.232206751854" lon="4.461861892814">
        <ele>1.8</ele>
        <time>2020-08-19T20:59:33Z</time>
      </trkpt>
      <trkpt lat="51.232233238658" lon="4.462092143607">
        <ele>2.8</ele>
        <time>2020-08-19T20:59:44Z</time>
      </trkpt>
      <trkpt lat="51.232247152612" lon="4.462155929866">
        <ele>1.6</ele>
        <time>2020-08-19T20:59:49Z</time>
      </trkpt>
      <trkpt lat="51.232328205585" lon="4.462436723516">
        <ele>0</ele>
        <time>2020-08-19T21:00:04Z</time>
      </trkpt>
      <trkpt lat="51.232333737639" lon="4.462485422355">
        <ele>0</ele>
        <time>2020-08-19T21:00:07Z</time>
      </trkpt>
      <trkpt lat="51.232359218615" lon="4.462547196958">
        <ele>0</ele>
        <time>2020-08-19T21:00:11Z</time>
      </trkpt>
      <trkpt lat="51.232411270214" lon="4.462911139056">
        <ele>0.4</ele>
        <time>2020-08-19T21:00:55Z</time>
      </trkpt>
      <trkpt lat="51.23242669291" lon="4.463144323514">
        <ele>0.8</ele>
        <time>2020-08-19T21:01:13Z</time>
      </trkpt>
      <trkpt lat="51.232456197198" lon="4.463488819604">
        <ele>4.2</ele>
        <time>2020-08-19T21:01:30Z</time>
      </trkpt>
      <trkpt lat="51.232473966826" lon="4.463557635003">
        <ele>4.8</ele>
        <time>2020-08-19T21:01:35Z</time>
      </trkpt>
      <trkpt lat="51.232494167205" lon="4.463597616666">
        <ele>5.6</ele>
        <time>2020-08-19T21:01:38Z</time>
      </trkpt>
      <trkpt lat="51.232511853014" lon="4.463676406526">
        <ele>5.8</ele>
        <time>2020-08-19T21:01:44Z</time>
      </trkpt>
      <trkpt lat="51.232521995113" lon="4.463777827516">
        <ele>6</ele>
        <time>2020-08-19T21:01:56Z</time>
      </trkpt>
      <trkpt lat="51.232560468034" lon="4.463896347582">
        <ele>5.4</ele>
        <time>2020-08-19T21:02:24Z</time>
      </trkpt>
      <trkpt lat="51.232477990138" lon="4.464194827041">
        <ele>9.2</ele>
        <time>2020-08-19T21:02:44Z</time>
      </trkpt>
      <trkpt lat="51.232312447613" lon="4.464097429363">
        <ele>11.6</ele>
        <time>2020-08-19T21:03:42Z</time>
      </trkpt>
      <trkpt lat="51.23192629348" lon="4.463737175301">
        <ele>9.6</ele>
        <time>2020-08-19T21:04:17Z</time>
      </trkpt>
      <trkpt lat="51.231666119304" lon="4.463479599514">
        <ele>13.4</ele>
        <time>2020-08-19T21:04:47Z</time>
      </trkpt>
      <trkpt lat="51.231415081399" lon="4.463274662059">
        <ele>5.8</ele>
        <time>2020-08-19T21:05:15Z</time>
      </trkpt>
      <trkpt lat="51.231180136742" lon="4.463184472815">
        <ele>3</ele>
        <time>2020-08-19T21:06:02Z</time>
      </trkpt>
      <trkpt lat="51.230737320965" lon="4.463265777245">
        <ele>25.6</ele>
        <time>2020-08-19T21:06:42Z</time>
      </trkpt>
      <trkpt lat="51.230724748115" lon="4.463265441969">
        <ele>25.4</ele>
        <time>2020-08-19T21:06:43Z</time>
      </trkpt>
      <trkpt lat="51.23046784288" lon="4.463402737491">
        <ele>22</ele>
        <time>2020-08-19T21:07:34Z</time>
      </trkpt>
      <trkpt lat="51.230376731627" lon="4.463358816335">
        <ele>18.2</ele>
        <time>2020-08-19T21:07:47Z</time>
      </trkpt>
      <trkpt lat="51.230218313717" lon="4.462692203828">
        <ele>1.2</ele>
        <time>2020-08-19T21:08:34Z</time>
      </trkpt>
      <trkpt lat="51.230131477233" lon="4.462455415153">
        <ele>0</ele>
        <time>2020-08-19T21:08:53Z</time>
      </trkpt>
      <trkpt lat="51.230017315755" lon="4.462226589283">
        <ele>0.2</ele>
        <time>2020-08-19T21:09:10Z</time>
      </trkpt>
      <trkpt lat="51.229985799811" lon="4.462192810226">
        <ele>0.8</ele>
        <time>2020-08-19T21:09:14Z</time>
      </trkpt>
      <trkpt lat="51.229972975504" lon="4.462165736689">
        <ele>1.2</ele>
        <time>2020-08-19T21:09:16Z</time>
      </trkpt>
      <trkpt lat="51.229873482351" lon="4.462039421456">
        <ele>1.6</ele>
        <time>2020-08-19T21:09:27Z</time>
      </trkpt>
      <trkpt lat="51.229843307511" lon="4.462023579665">
        <ele>1.8</ele>
        <time>2020-08-19T21:09:30Z</time>
      </trkpt>
      <trkpt lat="51.229783712202" lon="4.461790730483">
        <ele>1.2</ele>
        <time>2020-08-19T21:09:52Z</time>
      </trkpt>
      <trkpt lat="51.229760661977" lon="4.461553690351">
        <ele>4.8</ele>
        <time>2020-08-19T21:10:02Z</time>
      </trkpt>
      <trkpt lat="51.229459332672" lon="4.4617440433">
        <ele>5.6</ele>
        <time>2020-08-19T21:10:29Z</time>
      </trkpt>
      <trkpt lat="51.229009559918" lon="4.461756280874">
        <ele>14.8</ele>
        <time>2020-08-19T21:11:06Z</time>
      </trkpt>
      <trkpt lat="51.228896991001" lon="4.461754185399">
        <ele>17.6</ele>
        <time>2020-08-19T21:11:18Z</time>
      </trkpt>
      <trkpt lat="51.228568923435" lon="4.461659805205">
        <ele>24.8</ele>
        <time>2020-08-19T21:12:10Z</time>
      </trkpt>
      <trkpt lat="51.228464484961" lon="4.461097547353">
        <ele>41.2</ele>
        <time>2020-08-19T21:13:01Z</time>
      </trkpt>
      <trkpt lat="51.228220739309" lon="4.46047586183">
        <ele>6.6</ele>
        <time>2020-08-19T21:13:35Z</time>
      </trkpt>
      <trkpt lat="51.228202969681" lon="4.460407297888">
        <ele>4.8</ele>
        <time>2020-08-19T21:13:39Z</time>
      </trkpt>
      <trkpt lat="51.228184110406" lon="4.460363376732">
        <ele>4</ele>
        <time>2020-08-19T21:13:42Z</time>
      </trkpt>
      <trkpt lat="51.228297182237" lon="4.460077386304">
        <ele>1.8</ele>
        <time>2020-08-19T21:14:09Z</time>
      </trkpt>
      <trkpt lat="51.228534473826" lon="4.459465088509">
        <ele>22</ele>
        <time>2020-08-19T21:14:54Z</time>
      </trkpt>
      <trkpt lat="51.228537239853" lon="4.459446145415">
        <ele>22</ele>
        <time>2020-08-19T21:14:55Z</time>
      </trkpt>
      <trkpt lat="51.228534390007" lon="4.458808199006">
        <ele>7.8</ele>
        <time>2020-08-19T21:15:30Z</time>
      </trkpt>
      <trkpt lat="51.228521733338" lon="4.458419111208">
        <ele>1</ele>
        <time>2020-08-19T21:15:49Z</time>
      </trkpt>
      <trkpt lat="51.2285299476" lon="4.458367059609">
        <ele>0.6</ele>
        <time>2020-08-19T21:15:52Z</time>
      </trkpt>
      <trkpt lat="51.228523074442" lon="4.458296232554">
        <ele>0</ele>
        <time>2020-08-19T21:15:56Z</time>
      </trkpt>
      <trkpt lat="51.228591722203" lon="4.458208138785">
        <ele>0.2</ele>
        <time>2020-08-19T21:16:07Z</time>
      </trkpt>
      <trkpt lat="51.229023054777" lon="4.458156171005">
        <ele>6.2</ele>
        <time>2020-08-19T21:16:44Z</time>
      </trkpt>
      <trkpt lat="51.229414657145" lon="4.457929692067">
        <ele>15.2</ele>
        <time>2020-08-19T21:17:29Z</time>
      </trkpt>
      <trkpt lat="51.229677178253" lon="4.457852159492">
        <ele>10.2</ele>
        <time>2020-08-19T21:18:07Z</time>
      </trkpt>
    </trkseg>
  </trk>
</gpx>